sensor_id;sensor_type;location;lat;lon;timestamp;P1;durP1;ratioP1;P2;durP2;ratioP2
10333;SDS011;5212;47.892;16.406;2023-03-04T00:00:47;49.57;;;30.03;;
10333;SDS011;5212;47.892;16.406;2023-03-04T00:03:17;53.23;;;31.80;;
10333;SDS011;5212;47.892;16.406;2023-03-04T00:05:43;54.83;;;32.47;;
10333;SDS011;5212;47.892;16.406;2023-03-04T00:08:12;50.63;;;30.83;;
10333;SDS011;5212;47.892;16.406;2023-03-04T00:10:38;46.57;;;28.30;;
10333;SDS011;5212;47.892;16.406;2023-03-04T00:13:05;50.67;;;30.80;;
10333;SDS011;5212;47.892;16.406;2023-03-04T00:15:31;48.43;;;29.43;;
10333;SDS011;5212;47.892;16.406;2023-03-04T00:17:58;55.13;;;31.33;;
10333;SDS011;5212;47.892;16.406;2023-03-04T00:20:24;47.23;;;28.90;;
10333;SDS011;5212;47.892;16.406;2023-03-04T00:22:52;48.17;;;29.13;;
10333;SDS011;5212;47.892;16.406;2023-03-04T00:25:20;51.97;;;31.50;;
10333;SDS011;5212;47.892;16.406;2023-03-04T00:27:46;53.30;;;32.63;;
10333;SDS011;5212;47.892;16.406;2023-03-04T00:30:13;48.83;;;28.90;;
10333;SDS011;5212;47.892;16.406;2023-03-04T00:32:39;54.53;;;31.20;;
10333;SDS011;5212;47.892;16.406;2023-03-04T00:35:06;54.80;;;31.67;;
10333;SDS011;5212;47.892;16.406;2023-03-04T00:37:33;50.47;;;29.27;;
10333;SDS011;5212;47.892;16.406;2023-03-04T00:39:59;57.33;;;32.30;;
10333;SDS011;5212;47.892;16.406;2023-03-04T00:42:28;50.00;;;30.43;;
10333;SDS011;5212;47.892;16.406;2023-03-04T00:44:54;51.70;;;30.47;;
10333;SDS011;5212;47.892;16.406;2023-03-04T00:47:21;53.87;;;31.23;;
10333;SDS011;5212;47.892;16.406;2023-03-04T00:49:47;50.33;;;30.10;;
10333;SDS011;5212;47.892;16.406;2023-03-04T00:52:13;49.90;;;28.73;;
10333;SDS011;5212;47.892;16.406;2023-03-04T00:54:40;47.40;;;29.23;;
10333;SDS011;5212;47.892;16.406;2023-03-04T00:57:06;54.17;;;31.70;;
10333;SDS011;5212;47.892;16.406;2023-03-04T00:59:34;51.00;;;31.03;;
10333;SDS011;5212;47.892;16.406;2023-03-04T01:02:00;52.73;;;30.57;;
10333;SDS011;5212;47.892;16.406;2023-03-04T01:04:27;50.33;;;30.93;;
10333;SDS011;5212;47.892;16.406;2023-03-04T01:06:53;54.77;;;30.97;;
10333;SDS011;5212;47.892;16.406;2023-03-04T01:09:20;48.57;;;28.37;;
10333;SDS011;5212;47.892;16.406;2023-03-04T01:11:46;53.30;;;32.20;;
10333;SDS011;5212;47.892;16.406;2023-03-04T01:14:13;46.73;;;29.40;;
10333;SDS011;5212;47.892;16.406;2023-03-04T01:16:40;48.33;;;30.13;;
10333;SDS011;5212;47.892;16.406;2023-03-04T01:19:06;49.93;;;29.80;;
10333;SDS011;5212;47.892;16.406;2023-03-04T01:21:33;51.20;;;30.67;;
10333;SDS011;5212;47.892;16.406;2023-03-04T01:24:00;50.60;;;30.53;;
10333;SDS011;5212;47.892;16.406;2023-03-04T01:26:26;52.13;;;29.83;;
10333;SDS011;5212;47.892;16.406;2023-03-04T01:28:52;49.80;;;29.73;;
10333;SDS011;5212;47.892;16.406;2023-03-04T01:31:19;49.77;;;30.27;;
10333;SDS011;5212;47.892;16.406;2023-03-04T01:33:47;50.23;;;30.07;;
10333;SDS011;5212;47.892;16.406;2023-03-04T01:36:14;53.27;;;30.77;;
10333;SDS011;5212;47.892;16.406;2023-03-04T01:38:40;49.20;;;29.53;;
10333;SDS011;5212;47.892;16.406;2023-03-04T01:41:06;53.57;;;29.57;;
10333;SDS011;5212;47.892;16.406;2023-03-04T01:43:34;46.80;;;27.87;;
10333;SDS011;5212;47.892;16.406;2023-03-04T01:46:02;48.33;;;29.03;;
10333;SDS011;5212;47.892;16.406;2023-03-04T01:48:30;45.83;;;28.00;;
10333;SDS011;5212;47.892;16.406;2023-03-04T01:51:01;41.77;;;24.93;;
10333;SDS011;5212;47.892;16.406;2023-03-04T01:53:28;42.17;;;24.87;;
10333;SDS011;5212;47.892;16.406;2023-03-04T01:55:56;39.23;;;23.87;;
10333;SDS011;5212;47.892;16.406;2023-03-04T01:58:23;38.53;;;23.00;;
10333;SDS011;5212;47.892;16.406;2023-03-04T02:00:51;39.43;;;24.47;;
10333;SDS011;5212;47.892;16.406;2023-03-04T02:03:17;40.00;;;24.43;;
10333;SDS011;5212;47.892;16.406;2023-03-04T02:05:45;38.17;;;24.40;;
10333;SDS011;5212;47.892;16.406;2023-03-04T02:08:14;33.73;;;22.10;;
10333;SDS011;5212;47.892;16.406;2023-03-04T02:10:43;45.47;;;26.70;;
10333;SDS011;5212;47.892;16.406;2023-03-04T02:13:10;47.33;;;29.40;;
10333;SDS011;5212;47.892;16.406;2023-03-04T02:15:37;40.33;;;24.83;;
10333;SDS011;5212;47.892;16.406;2023-03-04T02:18:06;48.23;;;27.00;;
10333;SDS011;5212;47.892;16.406;2023-03-04T02:20:40;42.90;;;25.77;;
10333;SDS011;5212;47.892;16.406;2023-03-04T02:23:13;41.43;;;25.67;;
10333;SDS011;5212;47.892;16.406;2023-03-04T02:25:44;39.87;;;25.07;;
10333;SDS011;5212;47.892;16.406;2023-03-04T02:28:13;45.10;;;26.10;;
10333;SDS011;5212;47.892;16.406;2023-03-04T02:30:39;44.17;;;26.83;;
10333;SDS011;5212;47.892;16.406;2023-03-04T02:33:08;42.30;;;25.20;;
10333;SDS011;5212;47.892;16.406;2023-03-04T02:35:38;47.73;;;28.13;;
10333;SDS011;5212;47.892;16.406;2023-03-04T02:38:04;46.23;;;28.53;;
10333;SDS011;5212;47.892;16.406;2023-03-04T02:40:31;42.83;;;26.13;;
10333;SDS011;5212;47.892;16.406;2023-03-04T02:42:59;42.47;;;26.83;;
10333;SDS011;5212;47.892;16.406;2023-03-04T02:45:28;46.77;;;26.77;;
10333;SDS011;5212;47.892;16.406;2023-03-04T02:47:56;47.50;;;29.23;;
10333;SDS011;5212;47.892;16.406;2023-03-04T02:50:22;45.63;;;26.07;;
10333;SDS011;5212;47.892;16.406;2023-03-04T02:52:49;45.83;;;26.23;;
10333;SDS011;5212;47.892;16.406;2023-03-04T02:55:15;46.20;;;26.80;;
10333;SDS011;5212;47.892;16.406;2023-03-04T02:57:42;40.57;;;24.67;;
10333;SDS011;5212;47.892;16.406;2023-03-04T03:00:09;46.93;;;25.40;;
10333;SDS011;5212;47.892;16.406;2023-03-04T03:02:37;41.90;;;25.57;;
10333;SDS011;5212;47.892;16.406;2023-03-04T03:05:04;49.20;;;28.80;;
10333;SDS011;5212;47.892;16.406;2023-03-04T03:07:31;45.60;;;26.93;;
10333;SDS011;5212;47.892;16.406;2023-03-04T03:09:59;41.83;;;24.40;;
10333;SDS011;5212;47.892;16.406;2023-03-04T03:12:25;43.83;;;28.03;;
10333;SDS011;5212;47.892;16.406;2023-03-04T03:14:52;43.13;;;26.20;;
10333;SDS011;5212;47.892;16.406;2023-03-04T03:17:18;41.70;;;26.00;;
10333;SDS011;5212;47.892;16.406;2023-03-04T03:19:46;41.10;;;24.63;;
10333;SDS011;5212;47.892;16.406;2023-03-04T03:22:12;39.43;;;24.10;;
10333;SDS011;5212;47.892;16.406;2023-03-04T03:24:39;39.03;;;23.40;;
10333;SDS011;5212;47.892;16.406;2023-03-04T03:27:05;39.67;;;22.70;;
10333;SDS011;5212;47.892;16.406;2023-03-04T03:29:31;41.87;;;23.73;;
10333;SDS011;5212;47.892;16.406;2023-03-04T03:31:58;35.37;;;21.40;;
10333;SDS011;5212;47.892;16.406;2023-03-04T03:34:24;40.30;;;22.60;;
10333;SDS011;5212;47.892;16.406;2023-03-04T03:36:52;37.97;;;22.23;;
10333;SDS011;5212;47.892;16.406;2023-03-04T03:39:18;37.70;;;21.80;;
10333;SDS011;5212;47.892;16.406;2023-03-04T03:41:45;35.47;;;21.00;;
10333;SDS011;5212;47.892;16.406;2023-03-04T03:44:11;39.93;;;23.70;;
10333;SDS011;5212;47.892;16.406;2023-03-04T03:46:37;42.17;;;25.33;;
10333;SDS011;5212;47.892;16.406;2023-03-04T03:49:04;41.83;;;24.67;;
10333;SDS011;5212;47.892;16.406;2023-03-04T03:51:30;42.70;;;24.57;;
10333;SDS011;5212;47.892;16.406;2023-03-04T03:53:58;36.33;;;20.83;;
10333;SDS011;5212;47.892;16.406;2023-03-04T03:56:25;34.63;;;21.50;;
10333;SDS011;5212;47.892;16.406;2023-03-04T03:58:51;37.43;;;21.50;;
10333;SDS011;5212;47.892;16.406;2023-03-04T04:01:18;35.93;;;22.43;;
10333;SDS011;5212;47.892;16.406;2023-03-04T04:03:44;31.13;;;18.60;;
10333;SDS011;5212;47.892;16.406;2023-03-04T04:06:10;37.07;;;21.63;;
10333;SDS011;5212;47.892;16.406;2023-03-04T04:08:36;37.07;;;21.23;;
10333;SDS011;5212;47.892;16.406;2023-03-04T04:11:04;36.37;;;22.03;;
10333;SDS011;5212;47.892;16.406;2023-03-04T04:13:31;37.63;;;22.73;;
10333;SDS011;5212;47.892;16.406;2023-03-04T04:15:57;41.40;;;23.67;;
10333;SDS011;5212;47.892;16.406;2023-03-04T04:18:24;38.07;;;21.43;;
10333;SDS011;5212;47.892;16.406;2023-03-04T04:20:50;37.97;;;22.20;;
10333;SDS011;5212;47.892;16.406;2023-03-04T04:23:17;38.70;;;23.00;;
10333;SDS011;5212;47.892;16.406;2023-03-04T04:25:43;33.20;;;19.50;;
10333;SDS011;5212;47.892;16.406;2023-03-04T04:28:11;37.80;;;22.60;;
10333;SDS011;5212;47.892;16.406;2023-03-04T04:30:37;41.33;;;24.90;;
10333;SDS011;5212;47.892;16.406;2023-03-04T04:33:04;39.43;;;23.73;;
10333;SDS011;5212;47.892;16.406;2023-03-04T04:35:34;36.43;;;22.97;;
10333;SDS011;5212;47.892;16.406;2023-03-04T04:38:02;38.77;;;22.67;;
10333;SDS011;5212;47.892;16.406;2023-03-04T04:40:29;36.60;;;23.33;;
10333;SDS011;5212;47.892;16.406;2023-03-04T04:42:55;32.57;;;19.73;;
10333;SDS011;5212;47.892;16.406;2023-03-04T04:45:23;35.10;;;20.60;;
10333;SDS011;5212;47.892;16.406;2023-03-04T04:47:49;39.73;;;23.37;;
10333;SDS011;5212;47.892;16.406;2023-03-04T04:50:16;44.53;;;25.47;;
10333;SDS011;5212;47.892;16.406;2023-03-04T04:52:42;40.37;;;25.10;;
10333;SDS011;5212;47.892;16.406;2023-03-04T04:55:09;38.67;;;22.93;;
10333;SDS011;5212;47.892;16.406;2023-03-04T04:57:35;41.33;;;25.10;;
10333;SDS011;5212;47.892;16.406;2023-03-04T05:00:02;44.40;;;24.23;;
10333;SDS011;5212;47.892;16.406;2023-03-04T05:02:30;37.33;;;23.03;;
10333;SDS011;5212;47.892;16.406;2023-03-04T05:05:00;36.43;;;22.40;;
10333;SDS011;5212;47.892;16.406;2023-03-04T05:07:27;33.50;;;21.57;;
10333;SDS011;5212;47.892;16.406;2023-03-04T05:09:53;37.53;;;22.00;;
10333;SDS011;5212;47.892;16.406;2023-03-04T05:12:20;35.17;;;21.40;;
10333;SDS011;5212;47.892;16.406;2023-03-04T05:14:46;36.43;;;22.50;;
10333;SDS011;5212;47.892;16.406;2023-03-04T05:17:13;35.73;;;21.47;;
10333;SDS011;5212;47.892;16.406;2023-03-04T05:19:40;42.10;;;24.87;;
10333;SDS011;5212;47.892;16.406;2023-03-04T05:22:06;36.00;;;22.77;;
10333;SDS011;5212;47.892;16.406;2023-03-04T05:24:32;36.97;;;21.70;;
10333;SDS011;5212;47.892;16.406;2023-03-04T05:26:59;36.83;;;21.50;;
10333;SDS011;5212;47.892;16.406;2023-03-04T05:29:25;44.30;;;25.63;;
10333;SDS011;5212;47.892;16.406;2023-03-04T05:31:52;45.13;;;26.70;;
10333;SDS011;5212;47.892;16.406;2023-03-04T05:34:18;43.13;;;26.73;;
10333;SDS011;5212;47.892;16.406;2023-03-04T05:36:45;41.20;;;26.10;;
10333;SDS011;5212;47.892;16.406;2023-03-04T05:39:14;41.47;;;25.23;;
10333;SDS011;5212;47.892;16.406;2023-03-04T05:41:43;43.23;;;26.00;;
10333;SDS011;5212;47.892;16.406;2023-03-04T05:44:09;37.90;;;23.47;;
10333;SDS011;5212;47.892;16.406;2023-03-04T05:46:35;39.30;;;24.43;;
10333;SDS011;5212;47.892;16.406;2023-03-04T05:49:02;40.60;;;24.40;;
10333;SDS011;5212;47.892;16.406;2023-03-04T05:51:28;41.77;;;24.93;;
10333;SDS011;5212;47.892;16.406;2023-03-04T05:53:55;45.23;;;25.63;;
10333;SDS011;5212;47.892;16.406;2023-03-04T05:56:22;40.73;;;25.50;;
10333;SDS011;5212;47.892;16.406;2023-03-04T05:58:48;40.53;;;24.50;;
10333;SDS011;5212;47.892;16.406;2023-03-04T06:01:15;40.53;;;24.63;;
10333;SDS011;5212;47.892;16.406;2023-03-04T06:03:42;41.37;;;24.93;;
10333;SDS011;5212;47.892;16.406;2023-03-04T06:06:08;39.47;;;24.33;;
10333;SDS011;5212;47.892;16.406;2023-03-04T06:08:34;38.97;;;24.07;;
10333;SDS011;5212;47.892;16.406;2023-03-04T06:11:02;39.77;;;24.60;;
10333;SDS011;5212;47.892;16.406;2023-03-04T06:13:29;36.37;;;23.10;;
10333;SDS011;5212;47.892;16.406;2023-03-04T06:15:56;37.17;;;22.77;;
10333;SDS011;5212;47.892;16.406;2023-03-04T06:18:24;40.53;;;23.40;;
10333;SDS011;5212;47.892;16.406;2023-03-04T06:20:54;38.17;;;22.37;;
10333;SDS011;5212;47.892;16.406;2023-03-04T06:23:21;44.00;;;24.90;;
10333;SDS011;5212;47.892;16.406;2023-03-04T06:25:50;41.17;;;24.73;;
10333;SDS011;5212;47.892;16.406;2023-03-04T06:28:18;45.17;;;25.20;;
10333;SDS011;5212;47.892;16.406;2023-03-04T06:33:13;36.00;;;21.93;;
10333;SDS011;5212;47.892;16.406;2023-03-04T06:35:44;39.63;;;23.17;;
10333;SDS011;5212;47.892;16.406;2023-03-04T06:38:10;38.63;;;23.03;;
10333;SDS011;5212;47.892;16.406;2023-03-04T06:40:36;38.90;;;22.07;;
10333;SDS011;5212;47.892;16.406;2023-03-04T06:43:03;34.50;;;21.97;;
10333;SDS011;5212;47.892;16.406;2023-03-04T06:45:30;37.30;;;21.90;;
10333;SDS011;5212;47.892;16.406;2023-03-04T06:47:56;41.43;;;25.70;;
10333;SDS011;5212;47.892;16.406;2023-03-04T06:50:23;44.60;;;24.43;;
10333;SDS011;5212;47.892;16.406;2023-03-04T06:52:50;41.20;;;23.30;;
10333;SDS011;5212;47.892;16.406;2023-03-04T06:55:16;43.03;;;24.13;;
10333;SDS011;5212;47.892;16.406;2023-03-04T06:57:43;36.97;;;23.37;;
10333;SDS011;5212;47.892;16.406;2023-03-04T07:00:10;40.37;;;24.83;;
10333;SDS011;5212;47.892;16.406;2023-03-04T07:02:37;40.67;;;25.43;;
10333;SDS011;5212;47.892;16.406;2023-03-04T07:05:06;38.97;;;24.23;;
10333;SDS011;5212;47.892;16.406;2023-03-04T07:07:33;40.40;;;24.17;;
10333;SDS011;5212;47.892;16.406;2023-03-04T07:09:59;34.40;;;20.53;;
10333;SDS011;5212;47.892;16.406;2023-03-04T07:12:26;35.17;;;22.47;;
10333;SDS011;5212;47.892;16.406;2023-03-04T07:14:53;39.00;;;23.23;;
10333;SDS011;5212;47.892;16.406;2023-03-04T07:17:20;38.13;;;24.30;;
10333;SDS011;5212;47.892;16.406;2023-03-04T07:19:47;36.40;;;22.43;;
10333;SDS011;5212;47.892;16.406;2023-03-04T07:22:13;37.40;;;24.17;;
10333;SDS011;5212;47.892;16.406;2023-03-04T07:24:40;40.07;;;25.27;;
10333;SDS011;5212;47.892;16.406;2023-03-04T07:27:06;41.27;;;24.57;;
10333;SDS011;5212;47.892;16.406;2023-03-04T07:29:33;41.00;;;25.40;;
10333;SDS011;5212;47.892;16.406;2023-03-04T07:32:00;35.57;;;22.20;;
10333;SDS011;5212;47.892;16.406;2023-03-04T07:34:26;41.80;;;26.27;;
10333;SDS011;5212;47.892;16.406;2023-03-04T07:36:54;43.93;;;26.60;;
10333;SDS011;5212;47.892;16.406;2023-03-04T07:39:20;41.60;;;25.37;;
10333;SDS011;5212;47.892;16.406;2023-03-04T07:41:46;42.73;;;27.07;;
10333;SDS011;5212;47.892;16.406;2023-03-04T07:44:13;46.60;;;28.13;;
10333;SDS011;5212;47.892;16.406;2023-03-04T07:46:40;109.87;;;65.47;;
10333;SDS011;5212;47.892;16.406;2023-03-04T07:49:06;58.77;;;37.50;;
10333;SDS011;5212;47.892;16.406;2023-03-04T07:51:34;54.67;;;34.43;;
10333;SDS011;5212;47.892;16.406;2023-03-04T07:54:02;51.23;;;31.77;;
10333;SDS011;5212;47.892;16.406;2023-03-04T07:56:29;48.13;;;29.33;;
10333;SDS011;5212;47.892;16.406;2023-03-04T07:58:57;42.60;;;27.30;;
10333;SDS011;5212;47.892;16.406;2023-03-04T08:01:24;44.37;;;28.17;;
10333;SDS011;5212;47.892;16.406;2023-03-04T08:03:52;48.40;;;28.80;;
10333;SDS011;5212;47.892;16.406;2023-03-04T08:06:19;53.77;;;29.70;;
10333;SDS011;5212;47.892;16.406;2023-03-04T08:08:46;56.47;;;29.47;;
10333;SDS011;5212;47.892;16.406;2023-03-04T08:11:14;66.17;;;32.30;;
10333;SDS011;5212;47.892;16.406;2023-03-04T08:13:42;46.83;;;28.17;;
10333;SDS011;5212;47.892;16.406;2023-03-04T08:16:09;46.00;;;27.70;;
10333;SDS011;5212;47.892;16.406;2023-03-04T08:18:37;63.63;;;36.83;;
10333;SDS011;5212;47.892;16.406;2023-03-04T08:21:06;56.87;;;36.17;;
10333;SDS011;5212;47.892;16.406;2023-03-04T08:23:33;61.63;;;37.67;;
10333;SDS011;5212;47.892;16.406;2023-03-04T08:26:04;56.90;;;34.63;;
10333;SDS011;5212;47.892;16.406;2023-03-04T08:28:32;47.57;;;31.43;;
10333;SDS011;5212;47.892;16.406;2023-03-04T08:30:58;50.93;;;31.63;;
10333;SDS011;5212;47.892;16.406;2023-03-04T08:33:24;46.87;;;30.17;;
10333;SDS011;5212;47.892;16.406;2023-03-04T08:35:53;43.53;;;29.87;;
10333;SDS011;5212;47.892;16.406;2023-03-04T08:38:19;45.57;;;30.90;;
10333;SDS011;5212;47.892;16.406;2023-03-04T08:40:50;40.73;;;26.47;;
10333;SDS011;5212;47.892;16.406;2023-03-04T08:43:18;46.83;;;30.10;;
10333;SDS011;5212;47.892;16.406;2023-03-04T08:45:45;49.77;;;31.13;;
10333;SDS011;5212;47.892;16.406;2023-03-04T08:48:11;44.53;;;29.47;;
10333;SDS011;5212;47.892;16.406;2023-03-04T08:50:38;48.20;;;31.23;;
10333;SDS011;5212;47.892;16.406;2023-03-04T08:53:06;46.97;;;29.03;;
10333;SDS011;5212;47.892;16.406;2023-03-04T08:55:32;46.47;;;29.50;;
10333;SDS011;5212;47.892;16.406;2023-03-04T08:57:58;45.63;;;29.33;;
10333;SDS011;5212;47.892;16.406;2023-03-04T09:00:26;45.07;;;29.20;;
10333;SDS011;5212;47.892;16.406;2023-03-04T09:02:53;44.67;;;28.97;;
10333;SDS011;5212;47.892;16.406;2023-03-04T09:05:20;45.13;;;27.50;;
10333;SDS011;5212;47.892;16.406;2023-03-04T09:07:47;42.40;;;27.97;;
10333;SDS011;5212;47.892;16.406;2023-03-04T09:10:13;43.60;;;29.00;;
10333;SDS011;5212;47.892;16.406;2023-03-04T09:12:47;40.50;;;28.40;;
10333;SDS011;5212;47.892;16.406;2023-03-04T09:15:14;41.43;;;28.67;;
10333;SDS011;5212;47.892;16.406;2023-03-04T09:17:40;45.37;;;29.23;;
10333;SDS011;5212;47.892;16.406;2023-03-04T09:20:11;40.20;;;27.33;;
10333;SDS011;5212;47.892;16.406;2023-03-04T09:22:38;40.87;;;27.93;;
10333;SDS011;5212;47.892;16.406;2023-03-04T09:25:05;42.80;;;28.23;;
10333;SDS011;5212;47.892;16.406;2023-03-04T09:27:32;39.63;;;26.00;;
10333;SDS011;5212;47.892;16.406;2023-03-04T09:29:59;39.63;;;26.57;;
10333;SDS011;5212;47.892;16.406;2023-03-04T09:32:25;39.67;;;24.80;;
10333;SDS011;5212;47.892;16.406;2023-03-04T09:34:53;38.50;;;25.83;;
10333;SDS011;5212;47.892;16.406;2023-03-04T09:37:20;33.57;;;22.77;;
10333;SDS011;5212;47.892;16.406;2023-03-04T09:39:52;37.90;;;22.33;;
10333;SDS011;5212;47.892;16.406;2023-03-04T09:42:57;28.63;;;18.83;;
10333;SDS011;5212;47.892;16.406;2023-03-04T09:45:44;30.93;;;19.23;;
10333;SDS011;5212;47.892;16.406;2023-03-04T09:48:14;33.83;;;21.33;;
10333;SDS011;5212;47.892;16.406;2023-03-04T09:50:44;28.30;;;19.50;;
10333;SDS011;5212;47.892;16.406;2023-03-04T10:01:08;31.30;;;20.03;;
10333;SDS011;5212;47.892;16.406;2023-03-04T10:06:08;33.20;;;20.93;;
10333;SDS011;5212;47.892;16.406;2023-03-04T10:08:37;32.47;;;21.47;;
10333;SDS011;5212;47.892;16.406;2023-03-04T10:11:08;32.90;;;22.10;;
10333;SDS011;5212;47.892;16.406;2023-03-04T10:13:41;31.57;;;18.83;;
10333;SDS011;5212;47.892;16.406;2023-03-04T10:16:15;29.17;;;19.00;;
10333;SDS011;5212;47.892;16.406;2023-03-04T10:18:45;27.87;;;17.70;;
10333;SDS011;5212;47.892;16.406;2023-03-04T10:21:15;25.17;;;17.63;;
10333;SDS011;5212;47.892;16.406;2023-03-04T10:23:45;31.37;;;19.40;;
10333;SDS011;5212;47.892;16.406;2023-03-04T10:26:13;35.27;;;20.70;;
10333;SDS011;5212;47.892;16.406;2023-03-04T10:28:41;38.07;;;19.63;;
10333;SDS011;5212;47.892;16.406;2023-03-04T10:31:09;37.73;;;20.47;;
10333;SDS011;5212;47.892;16.406;2023-03-04T10:33:38;31.07;;;19.50;;
10333;SDS011;5212;47.892;16.406;2023-03-04T10:38:52;29.10;;;18.87;;
10333;SDS011;5212;47.892;16.406;2023-03-04T10:41:20;33.03;;;21.33;;
10333;SDS011;5212;47.892;16.406;2023-03-04T10:43:49;29.57;;;20.90;;
10333;SDS011;5212;47.892;16.406;2023-03-04T10:46:16;27.90;;;19.17;;
10333;SDS011;5212;47.892;16.406;2023-03-04T10:48:43;31.20;;;19.87;;
10333;SDS011;5212;47.892;16.406;2023-03-04T10:51:11;27.43;;;19.57;;
10333;SDS011;5212;47.892;16.406;2023-03-04T10:53:43;31.77;;;20.43;;
10333;SDS011;5212;47.892;16.406;2023-03-04T11:01:49;30.00;;;19.30;;
10333;SDS011;5212;47.892;16.406;2023-03-04T11:04:16;26.07;;;18.77;;
10333;SDS011;5212;47.892;16.406;2023-03-04T11:06:43;28.37;;;19.17;;
10333;SDS011;5212;47.892;16.406;2023-03-04T11:09:19;28.00;;;19.90;;
10333;SDS011;5212;47.892;16.406;2023-03-04T11:11:46;27.27;;;19.37;;
10333;SDS011;5212;47.892;16.406;2023-03-04T11:14:17;29.60;;;19.40;;
10333;SDS011;5212;47.892;16.406;2023-03-04T11:16:54;30.37;;;19.33;;
10333;SDS011;5212;47.892;16.406;2023-03-04T11:19:32;32.77;;;21.17;;
10333;SDS011;5212;47.892;16.406;2023-03-04T11:22:02;32.40;;;20.07;;
10333;SDS011;5212;47.892;16.406;2023-03-04T11:24:30;30.70;;;19.33;;
10333;SDS011;5212;47.892;16.406;2023-03-04T11:27:00;25.97;;;18.23;;
10333;SDS011;5212;47.892;16.406;2023-03-04T11:29:30;27.60;;;18.60;;
10333;SDS011;5212;47.892;16.406;2023-03-04T11:32:00;29.43;;;19.37;;
10333;SDS011;5212;47.892;16.406;2023-03-04T11:34:36;36.43;;;21.73;;
10333;SDS011;5212;47.892;16.406;2023-03-04T11:37:08;29.10;;;19.97;;
10333;SDS011;5212;47.892;16.406;2023-03-04T11:39:38;37.97;;;23.50;;
10333;SDS011;5212;47.892;16.406;2023-03-04T11:42:10;37.67;;;22.67;;
10333;SDS011;5212;47.892;16.406;2023-03-04T11:44:41;28.57;;;20.87;;
10333;SDS011;5212;47.892;16.406;2023-03-04T11:47:15;31.27;;;21.37;;
10333;SDS011;5212;47.892;16.406;2023-03-04T11:55:53;30.83;;;20.53;;
10333;SDS011;5212;47.892;16.406;2023-03-04T11:58:51;27.70;;;20.17;;
10333;SDS011;5212;47.892;16.406;2023-03-04T12:01:32;29.17;;;20.70;;
10333;SDS011;5212;47.892;16.406;2023-03-04T12:04:11;29.97;;;19.10;;
10333;SDS011;5212;47.892;16.406;2023-03-04T12:06:58;26.37;;;18.50;;
10333;SDS011;5212;47.892;16.406;2023-03-04T12:09:43;29.70;;;18.87;;
10333;SDS011;5212;47.892;16.406;2023-03-04T12:12:31;28.90;;;20.00;;
10333;SDS011;5212;47.892;16.406;2023-03-04T12:15:08;30.63;;;20.23;;
10333;SDS011;5212;47.892;16.406;2023-03-04T12:17:48;29.83;;;20.83;;
10333;SDS011;5212;47.892;16.406;2023-03-04T12:20:39;29.30;;;19.57;;
10333;SDS011;5212;47.892;16.406;2023-03-04T12:23:16;30.30;;;18.07;;
10333;SDS011;5212;47.892;16.406;2023-03-04T12:25:51;24.87;;;17.23;;
10333;SDS011;5212;47.892;16.406;2023-03-04T12:28:24;24.17;;;15.90;;
10333;SDS011;5212;47.892;16.406;2023-03-04T12:31:25;22.67;;;16.60;;
10333;SDS011;5212;47.892;16.406;2023-03-04T12:36:53;26.80;;;18.43;;
10333;SDS011;5212;47.892;16.406;2023-03-04T12:39:25;26.13;;;17.40;;
10333;SDS011;5212;47.892;16.406;2023-03-04T12:42:01;26.67;;;18.17;;
10333;SDS011;5212;47.892;16.406;2023-03-04T12:44:34;27.07;;;18.47;;
10333;SDS011;5212;47.892;16.406;2023-03-04T12:47:08;25.60;;;17.30;;
10333;SDS011;5212;47.892;16.406;2023-03-04T12:49:44;26.70;;;16.83;;
10333;SDS011;5212;47.892;16.406;2023-03-04T12:52:18;24.27;;;16.67;;
10333;SDS011;5212;47.892;16.406;2023-03-04T12:54:49;23.37;;;16.13;;
10333;SDS011;5212;47.892;16.406;2023-03-04T12:57:22;25.20;;;16.40;;
10333;SDS011;5212;47.892;16.406;2023-03-04T12:59:50;22.77;;;15.53;;
10333;SDS011;5212;47.892;16.406;2023-03-04T13:02:35;24.50;;;16.10;;
10333;SDS011;5212;47.892;16.406;2023-03-04T13:10:18;22.07;;;15.50;;
10333;SDS011;5212;47.892;16.406;2023-03-04T13:12:47;22.53;;;16.17;;
10333;SDS011;5212;47.892;16.406;2023-03-04T13:17:49;27.33;;;16.03;;
10333;SDS011;5212;47.892;16.406;2023-03-04T13:20:19;23.23;;;14.30;;
10333;SDS011;5212;47.892;16.406;2023-03-04T13:22:53;19.73;;;13.17;;
10333;SDS011;5212;47.892;16.406;2023-03-04T13:25:34;25.77;;;14.40;;
10333;SDS011;5212;47.892;16.406;2023-03-04T13:33:48;23.53;;;14.90;;
10333;SDS011;5212;47.892;16.406;2023-03-04T13:39:23;21.30;;;14.40;;
10333;SDS011;5212;47.892;16.406;2023-03-04T13:42:02;21.27;;;14.33;;
10333;SDS011;5212;47.892;16.406;2023-03-04T13:52:59;21.23;;;14.03;;
10333;SDS011;5212;47.892;16.406;2023-03-04T13:55:34;18.87;;;13.67;;
10333;SDS011;5212;47.892;16.406;2023-03-04T14:00:43;21.40;;;13.77;;
10333;SDS011;5212;47.892;16.406;2023-03-04T14:05:47;22.27;;;13.50;;
10333;SDS011;5212;47.892;16.406;2023-03-04T14:08:34;21.67;;;13.80;;
10333;SDS011;5212;47.892;16.406;2023-03-04T14:16:14;21.20;;;13.17;;
10333;SDS011;5212;47.892;16.406;2023-03-04T14:18:44;19.30;;;12.73;;
10333;SDS011;5212;47.892;16.406;2023-03-04T14:21:12;20.87;;;13.37;;
10333;SDS011;5212;47.892;16.406;2023-03-04T14:23:39;18.83;;;12.60;;
10333;SDS011;5212;47.892;16.406;2023-03-04T14:28:42;21.60;;;14.47;;
10333;SDS011;5212;47.892;16.406;2023-03-04T14:31:13;20.87;;;13.97;;
10333;SDS011;5212;47.892;16.406;2023-03-04T14:33:42;19.30;;;13.87;;
10333;SDS011;5212;47.892;16.406;2023-03-04T14:38:49;21.63;;;15.20;;
10333;SDS011;5212;47.892;16.406;2023-03-04T14:41:18;19.73;;;14.03;;
10333;SDS011;5212;47.892;16.406;2023-03-04T14:43:49;20.07;;;14.43;;
10333;SDS011;5212;47.892;16.406;2023-03-04T14:46:19;20.83;;;14.07;;
10333;SDS011;5212;47.892;16.406;2023-03-04T14:48:48;20.97;;;14.37;;
10333;SDS011;5212;47.892;16.406;2023-03-04T14:51:26;23.57;;;14.73;;
10333;SDS011;5212;47.892;16.406;2023-03-04T14:53:54;21.53;;;14.03;;
10333;SDS011;5212;47.892;16.406;2023-03-04T14:56:25;20.53;;;14.57;;
10333;SDS011;5212;47.892;16.406;2023-03-04T14:58:53;21.00;;;14.70;;
10333;SDS011;5212;47.892;16.406;2023-03-04T15:03:54;19.27;;;14.87;;
10333;SDS011;5212;47.892;16.406;2023-03-04T15:09:07;22.50;;;15.43;;
10333;SDS011;5212;47.892;16.406;2023-03-04T15:11:44;21.40;;;13.53;;
10333;SDS011;5212;47.892;16.406;2023-03-04T15:22:04;28.93;;;17.33;;
10333;SDS011;5212;47.892;16.406;2023-03-04T15:24:31;23.13;;;15.63;;
10333;SDS011;5212;47.892;16.406;2023-03-04T15:26:58;21.93;;;16.20;;
10333;SDS011;5212;47.892;16.406;2023-03-04T15:29:24;23.47;;;16.17;;
10333;SDS011;5212;47.892;16.406;2023-03-04T15:31:50;24.93;;;16.30;;
10333;SDS011;5212;47.892;16.406;2023-03-04T15:34:18;23.33;;;15.30;;
10333;SDS011;5212;47.892;16.406;2023-03-04T15:36:46;19.70;;;14.77;;
10333;SDS011;5212;47.892;16.406;2023-03-04T15:39:15;23.60;;;15.40;;
10333;SDS011;5212;47.892;16.406;2023-03-04T15:41:42;20.97;;;14.73;;
10333;SDS011;5212;47.892;16.406;2023-03-04T15:44:10;19.90;;;13.77;;
10333;SDS011;5212;47.892;16.406;2023-03-04T15:46:36;20.73;;;15.33;;
10333;SDS011;5212;47.892;16.406;2023-03-04T15:49:03;22.37;;;15.63;;
10333;SDS011;5212;47.892;16.406;2023-03-04T15:51:29;23.83;;;16.37;;
10333;SDS011;5212;47.892;16.406;2023-03-04T15:53:56;23.70;;;15.87;;